sensor_id;sensor_type;location;lat;lon;timestamp;pressure;altitude;pressure_sealevel;temperature
31528;BMP280;10206;48.012;10.030;2023-05-10T00:01:16;94229.44;;;16.89
31528;BMP280;10206;48.012;10.030;2023-05-10T00:03:42;94233.16;;;16.80
31528;BMP280;10206;48.012;10.030;2023-05-10T00:06:08;94228.38;;;16.65
31528;BMP280;10206;48.012;10.030;2023-05-10T00:08:34;94228.72;;;16.57
31528;BMP280;10206;48.012;10.030;2023-05-10T00:11:00;94225.63;;;16.65
31528;BMP280;10206;48.012;10.030;2023-05-10T00:13:26;94221.28;;;16.76
31528;BMP280;10206;48.012;10.030;2023-05-10T00:15:52;94232.63;;;16.84
31528;BMP280;10206;48.012;10.030;2023-05-10T00:18:19;94225.53;;;16.79
31528;BMP280;10206;48.012;10.030;2023-05-10T00:20:45;94222.88;;;16.81
31528;BMP280;10206;48.012;10.030;2023-05-10T00:23:12;94220.75;;;16.79
31528;BMP280;10206;48.012;10.030;2023-05-10T00:25:38;94221.09;;;16.56
31528;BMP280;10206;48.012;10.030;2023-05-10T00:28:04;94221.69;;;16.54
31528;BMP280;10206;48.012;10.030;2023-05-10T00:30:30;94224.91;;;16.65
31528;BMP280;10206;48.012;10.030;2023-05-10T00:32:56;94217.88;;;16.62
31528;BMP280;10206;48.012;10.030;2023-05-10T00:35:22;94226.41;;;16.68
31528;BMP280;10206;48.012;10.030;2023-05-10T00:37:48;94223.06;;;16.69
31528;BMP280;10206;48.012;10.030;2023-05-10T00:40:15;94222.94;;;16.67
31528;BMP280;10206;48.012;10.030;2023-05-10T00:42:41;94227.94;;;16.71
31528;BMP280;10206;48.012;10.030;2023-05-10T00:45:07;94222.78;;;16.63
31528;BMP280;10206;48.012;10.030;2023-05-10T00:47:34;94217.38;;;16.65
31528;BMP280;10206;48.012;10.030;2023-05-10T00:50:01;94221.53;;;16.50
31528;BMP280;10206;48.012;10.030;2023-05-10T00:52:28;94219.41;;;16.65
31528;BMP280;10206;48.012;10.030;2023-05-10T00:54:55;94223.91;;;16.74
31528;BMP280;10206;48.012;10.030;2023-05-10T00:57:21;94224.34;;;16.37
31528;BMP280;10206;48.012;10.030;2023-05-10T00:59:48;94219.66;;;16.55
31528;BMP280;10206;48.012;10.030;2023-05-10T01:02:15;94223.38;;;16.62
31528;BMP280;10206;48.012;10.030;2023-05-10T01:04:41;94220.75;;;16.64
31528;BMP280;10206;48.012;10.030;2023-05-10T01:07:08;94233.59;;;16.43
31528;BMP280;10206;48.012;10.030;2023-05-10T01:09:34;94232.09;;;16.40
31528;BMP280;10206;48.012;10.030;2023-05-10T01:12:02;94218.72;;;16.19
31528;BMP280;10206;48.012;10.030;2023-05-10T01:14:29;94220.66;;;16.46
31528;BMP280;10206;48.012;10.030;2023-05-10T01:16:56;94224.63;;;16.58
31528;BMP280;10206;48.012;10.030;2023-05-10T01:19:29;94231.41;;;16.55
31528;BMP280;10206;48.012;10.030;2023-05-10T01:33:16;94234.16;;;16.71
31528;BMP280;10206;48.012;10.030;2023-05-10T01:35:51;94228.56;;;16.69
31528;BMP280;10206;48.012;10.030;2023-05-10T01:46:40;94239.97;;;16.48
31528;BMP280;10206;48.012;10.030;2023-05-10T01:49:25;94239.44;;;16.36
31528;BMP280;10206;48.012;10.030;2023-05-10T01:51:54;94245.66;;;16.36
31528;BMP280;10206;48.012;10.030;2023-05-10T01:54:25;94245.06;;;16.38
31528;BMP280;10206;48.012;10.030;2023-05-10T01:56:56;94251.25;;;16.38
31528;BMP280;10206;48.012;10.030;2023-05-10T01:59:29;94251.00;;;16.48
31528;BMP280;10206;48.012;10.030;2023-05-10T02:01:59;94258.97;;;16.42
31528;BMP280;10206;48.012;10.030;2023-05-10T02:04:26;94261.00;;;16.41
31528;BMP280;10206;48.012;10.030;2023-05-10T02:06:54;94260.22;;;16.39
31528;BMP280;10206;48.012;10.030;2023-05-10T02:09:21;94269.50;;;16.45
31528;BMP280;10206;48.012;10.030;2023-05-10T02:11:49;94263.44;;;16.33
31528;BMP280;10206;48.012;10.030;2023-05-10T02:14:16;94263.50;;;16.35
31528;BMP280;10206;48.012;10.030;2023-05-10T02:16:43;94276.63;;;16.50
31528;BMP280;10206;48.012;10.030;2023-05-10T02:19:10;94274.66;;;16.53
31528;BMP280;10206;48.012;10.030;2023-05-10T02:21:39;94278.47;;;16.46
31528;BMP280;10206;48.012;10.030;2023-05-10T02:24:06;94283.88;;;16.44
31528;BMP280;10206;48.012;10.030;2023-05-10T02:26:35;94275.28;;;16.22
31528;BMP280;10206;48.012;10.030;2023-05-10T02:29:06;94282.25;;;16.39
31528;BMP280;10206;48.012;10.030;2023-05-10T02:31:33;94289.47;;;16.46
31528;BMP280;10206;48.012;10.030;2023-05-10T02:34:02;94292.66;;;16.40
31528;BMP280;10206;48.012;10.030;2023-05-10T02:36:29;94291.94;;;16.40
31528;BMP280;10206;48.012;10.030;2023-05-10T02:38:55;94287.13;;;16.25
31528;BMP280;10206;48.012;10.030;2023-05-10T02:41:23;94286.88;;;16.34
31528;BMP280;10206;48.012;10.030;2023-05-10T02:43:51;94293.13;;;16.21
31528;BMP280;10206;48.012;10.030;2023-05-10T02:46:18;94288.88;;;16.18
31528;BMP280;10206;48.012;10.030;2023-05-10T02:48:44;94284.97;;;16.23
31528;BMP280;10206;48.012;10.030;2023-05-10T02:51:12;94292.25;;;16.32
31528;BMP280;10206;48.012;10.030;2023-05-10T02:53:41;94288.94;;;16.20
31528;BMP280;10206;48.012;10.030;2023-05-10T02:56:15;94287.97;;;16.14
31528;BMP280;10206;48.012;10.030;2023-05-10T02:58:45;94287.63;;;16.21
31528;BMP280;10206;48.012;10.030;2023-05-10T03:01:12;94283.81;;;15.99
31528;BMP280;10206;48.012;10.030;2023-05-10T03:03:38;94301.47;;;16.23
31528;BMP280;10206;48.012;10.030;2023-05-10T03:06:04;94297.78;;;16.32
31528;BMP280;10206;48.012;10.030;2023-05-10T03:08:30;94304.13;;;16.21
31528;BMP280;10206;48.012;10.030;2023-05-10T03:11:09;94297.66;;;16.30
31528;BMP280;10206;48.012;10.030;2023-05-10T03:16:29;94295.44;;;16.27
31528;BMP280;10206;48.012;10.030;2023-05-10T03:19:06;94305.69;;;16.11
31528;BMP280;10206;48.012;10.030;2023-05-10T03:21:33;94305.38;;;16.18
31528;BMP280;10206;48.012;10.030;2023-05-10T03:24:07;94311.47;;;15.88
31528;BMP280;10206;48.012;10.030;2023-05-10T03:26:35;94307.28;;;16.29
31528;BMP280;10206;48.012;10.030;2023-05-10T03:29:04;94304.31;;;16.25
31528;BMP280;10206;48.012;10.030;2023-05-10T03:31:30;94315.91;;;16.37
31528;BMP280;10206;48.012;10.030;2023-05-10T03:33:56;94309.06;;;16.09
31528;BMP280;10206;48.012;10.030;2023-05-10T03:36:23;94312.44;;;16.08
31528;BMP280;10206;48.012;10.030;2023-05-10T03:38:49;94311.72;;;16.07
31528;BMP280;10206;48.012;10.030;2023-05-10T03:41:15;94308.69;;;16.01
31528;BMP280;10206;48.012;10.030;2023-05-10T03:43:41;94312.44;;;15.94
31528;BMP280;10206;48.012;10.030;2023-05-10T03:46:07;94317.75;;;16.04
31528;BMP280;10206;48.012;10.030;2023-05-10T03:48:33;94321.69;;;16.14
31528;BMP280;10206;48.012;10.030;2023-05-10T03:50:59;94319.97;;;16.07
31528;BMP280;10206;48.012;10.030;2023-05-10T03:53:25;94322.66;;;15.92
31528;BMP280;10206;48.012;10.030;2023-05-10T03:55:52;94321.13;;;16.02
31528;BMP280;10206;48.012;10.030;2023-05-10T03:58:18;94324.63;;;15.62
31528;BMP280;10206;48.012;10.030;2023-05-10T04:00:45;94323.97;;;15.91
31528;BMP280;10206;48.012;10.030;2023-05-10T04:03:14;94329.19;;;15.98
31528;BMP280;10206;48.012;10.030;2023-05-10T04:05:40;94325.56;;;16.09
31528;BMP280;10206;48.012;10.030;2023-05-10T04:08:06;94325.84;;;15.86
31528;BMP280;10206;48.012;10.030;2023-05-10T04:10:33;94328.88;;;15.92
31528;BMP280;10206;48.012;10.030;2023-05-10T04:12:59;94334.75;;;16.00
31528;BMP280;10206;48.012;10.030;2023-05-10T04:15:25;94338.00;;;16.10
31528;BMP280;10206;48.012;10.030;2023-05-10T04:17:52;94333.16;;;15.95
31528;BMP280;10206;48.012;10.030;2023-05-10T04:20:19;94327.75;;;15.84
31528;BMP280;10206;48.012;10.030;2023-05-10T04:22:45;94335.59;;;15.89
31528;BMP280;10206;48.012;10.030;2023-05-10T04:25:11;94338.75;;;15.97
31528;BMP280;10206;48.012;10.030;2023-05-10T04:27:37;94331.69;;;15.94
31528;BMP280;10206;48.012;10.030;2023-05-10T04:30:04;94338.94;;;16.01
31528;BMP280;10206;48.012;10.030;2023-05-10T04:32:30;94339.75;;;16.04
31528;BMP280;10206;48.012;10.030;2023-05-10T04:34:57;94340.78;;;15.97
31528;BMP280;10206;48.012;10.030;2023-05-10T04:37:23;94341.44;;;16.24
31528;BMP280;10206;48.012;10.030;2023-05-10T04:39:49;94335.41;;;16.28
31528;BMP280;10206;48.012;10.030;2023-05-10T04:42:16;94353.72;;;15.94
31528;BMP280;10206;48.012;10.030;2023-05-10T04:44:42;94348.75;;;16.33
31528;BMP280;10206;48.012;10.030;2023-05-10T04:47:08;94347.25;;;16.17
31528;BMP280;10206;48.012;10.030;2023-05-10T04:49:34;94346.03;;;16.20
31528;BMP280;10206;48.012;10.030;2023-05-10T04:52:00;94353.47;;;16.17
31528;BMP280;10206;48.012;10.030;2023-05-10T04:54:26;94348.16;;;16.21
31528;BMP280;10206;48.012;10.030;2023-05-10T04:56:52;94355.84;;;16.38
31528;BMP280;10206;48.012;10.030;2023-05-10T04:59:18;94351.38;;;16.45
31528;BMP280;10206;48.012;10.030;2023-05-10T05:01:44;94357.16;;;16.51
31528;BMP280;10206;48.012;10.030;2023-05-10T05:04:10;94363.22;;;16.63
31528;BMP280;10206;48.012;10.030;2023-05-10T05:06:37;94359.97;;;16.37
31528;BMP280;10206;48.012;10.030;2023-05-10T05:09:03;94360.38;;;16.61
31528;BMP280;10206;48.012;10.030;2023-05-10T05:11:29;94363.31;;;16.65
31528;BMP280;10206;48.012;10.030;2023-05-10T05:13:55;94370.38;;;16.84
31528;BMP280;10206;48.012;10.030;2023-05-10T05:16:21;94374.38;;;16.81
31528;BMP280;10206;48.012;10.030;2023-05-10T05:18:47;94371.91;;;16.57
31528;BMP280;10206;48.012;10.030;2023-05-10T05:21:15;94374.00;;;16.43
31528;BMP280;10206;48.012;10.030;2023-05-10T05:23:41;94379.41;;;16.71
31528;BMP280;10206;48.012;10.030;2023-05-10T05:26:08;94371.66;;;16.67
31528;BMP280;10206;48.012;10.030;2023-05-10T05:28:34;94374.19;;;16.77
31528;BMP280;10206;48.012;10.030;2023-05-10T05:31:03;94375.81;;;16.52
31528;BMP280;10206;48.012;10.030;2023-05-10T05:33:30;94379.75;;;16.20
31528;BMP280;10206;48.012;10.030;2023-05-10T05:35:56;94377.81;;;16.66
31528;BMP280;10206;48.012;10.030;2023-05-10T05:38:22;94388.31;;;16.69
31528;BMP280;10206;48.012;10.030;2023-05-10T05:40:49;94387.59;;;16.69
31528;BMP280;10206;48.012;10.030;2023-05-10T05:43:15;94384.53;;;16.33
31528;BMP280;10206;48.012;10.030;2023-05-10T05:45:41;94384.97;;;16.28
31528;BMP280;10206;48.012;10.030;2023-05-10T05:48:07;94391.00;;;16.53
31528;BMP280;10206;48.012;10.030;2023-05-10T05:50:33;94391.84;;;16.72
31528;BMP280;10206;48.012;10.030;2023-05-10T05:53:00;94390.47;;;16.57
31528;BMP280;10206;48.012;10.030;2023-05-10T05:55:26;94394.66;;;16.58
31528;BMP280;10206;48.012;10.030;2023-05-10T05:57:52;94398.66;;;16.41
31528;BMP280;10206;48.012;10.030;2023-05-10T06:00:18;94394.28;;;16.79
31528;BMP280;10206;48.012;10.030;2023-05-10T06:02:44;94399.00;;;16.92
31528;BMP280;10206;48.012;10.030;2023-05-10T06:05:10;94388.88;;;16.97
31528;BMP280;10206;48.012;10.030;2023-05-10T06:07:36;94398.03;;;16.86
31528;BMP280;10206;48.012;10.030;2023-05-10T06:10:03;94393.09;;;16.69
31528;BMP280;10206;48.012;10.030;2023-05-10T06:12:29;94393.13;;;16.84
31528;BMP280;10206;48.012;10.030;2023-05-10T06:14:55;94407.03;;;17.17
31528;BMP280;10206;48.012;10.030;2023-05-10T06:17:21;94409.53;;;16.96
31528;BMP280;10206;48.012;10.030;2023-05-10T06:19:47;94416.50;;;17.28
31528;BMP280;10206;48.012;10.030;2023-05-10T06:22:13;94409.38;;;17.54
31528;BMP280;10206;48.012;10.030;2023-05-10T06:24:39;94410.44;;;17.63
31528;BMP280;10206;48.012;10.030;2023-05-10T06:27:06;94415.78;;;17.59
31528;BMP280;10206;48.012;10.030;2023-05-10T06:29:32;94418.16;;;17.66
31528;BMP280;10206;48.012;10.030;2023-05-10T06:31:58;94417.19;;;17.75
31528;BMP280;10206;48.012;10.030;2023-05-10T06:34:25;94414.19;;;17.69
31528;BMP280;10206;48.012;10.030;2023-05-10T06:36:51;94424.81;;;17.77
31528;BMP280;10206;48.012;10.030;2023-05-10T06:39:17;94429.13;;;17.48
31528;BMP280;10206;48.012;10.030;2023-05-10T06:41:43;94433.03;;;17.59
31528;BMP280;10206;48.012;10.030;2023-05-10T06:44:10;94428.41;;;17.48
31528;BMP280;10206;48.012;10.030;2023-05-10T06:46:36;94425.56;;;17.46
31528;BMP280;10206;48.012;10.030;2023-05-10T06:49:02;94425.53;;;17.77
31528;BMP280;10206;48.012;10.030;2023-05-10T06:51:28;94428.56;;;17.83
31528;BMP280;10206;48.012;10.030;2023-05-10T06:53:54;94430.59;;;18.31
31528;BMP280;10206;48.012;10.030;2023-05-10T06:56:20;94433.25;;;18.29
31528;BMP280;10206;48.012;10.030;2023-05-10T06:58:48;94435.00;;;18.38
31528;BMP280;10206;48.012;10.030;2023-05-10T07:01:14;94438.91;;;18.67
31528;BMP280;10206;48.012;10.030;2023-05-10T07:03:40;94434.47;;;18.60
31528;BMP280;10206;48.012;10.030;2023-05-10T07:06:07;94441.00;;;18.51
31528;BMP280;10206;48.012;10.030;2023-05-10T07:08:34;94437.78;;;18.74
31528;BMP280;10206;48.012;10.030;2023-05-10T07:11:04;94444.03;;;18.92
31528;BMP280;10206;48.012;10.030;2023-05-10T07:13:31;94441.44;;;18.78
31528;BMP280;10206;48.012;10.030;2023-05-10T07:15:58;94439.88;;;18.91
31528;BMP280;10206;48.012;10.030;2023-05-10T07:18:25;94436.63;;;18.79
31528;BMP280;10206;48.012;10.030;2023-05-10T07:20:51;94444.06;;;18.41
31528;BMP280;10206;48.012;10.030;2023-05-10T07:23:18;94436.22;;;18.86
31528;BMP280;10206;48.012;10.030;2023-05-10T07:25:48;94438.06;;;18.29
31528;BMP280;10206;48.012;10.030;2023-05-10T07:28:15;94443.31;;;18.74
31528;BMP280;10206;48.012;10.030;2023-05-10T07:30:42;94446.44;;;18.82
31528;BMP280;10206;48.012;10.030;2023-05-10T07:33:09;94440.00;;;19.12
31528;BMP280;10206;48.012;10.030;2023-05-10T07:35:36;94440.16;;;19.36
31528;BMP280;10206;48.012;10.030;2023-05-10T07:38:02;94440.88;;;19.17
31528;BMP280;10206;48.012;10.030;2023-05-10T07:40:29;94446.81;;;18.57
31528;BMP280;10206;48.012;10.030;2023-05-10T07:42:55;94444.34;;;19.00
31528;BMP280;10206;48.012;10.030;2023-05-10T07:45:22;94449.66;;;18.76
31528;BMP280;10206;48.012;10.030;2023-05-10T07:47:48;94445.75;;;18.83
31528;BMP280;10206;48.012;10.030;2023-05-10T07:50:15;94451.28;;;18.83
31528;BMP280;10206;48.012;10.030;2023-05-10T07:52:41;94447.59;;;18.94
31528;BMP280;10206;48.012;10.030;2023-05-10T07:55:08;94434.03;;;18.32
31528;BMP280;10206;48.012;10.030;2023-05-10T07:57:34;94449.72;;;18.61
31528;BMP280;10206;48.012;10.030;2023-05-10T08:00:01;94445.16;;;18.50
31528;BMP280;10206;48.012;10.030;2023-05-10T08:02:27;94446.44;;;18.82
31528;BMP280;10206;48.012;10.030;2023-05-10T08:04:53;94448.88;;;18.23
31528;BMP280;10206;48.012;10.030;2023-05-10T08:07:19;94460.63;;;17.75
31528;BMP280;10206;48.012;10.030;2023-05-10T08:09:45;94461.19;;;18.04
31528;BMP280;10206;48.012;10.030;2023-05-10T08:12:11;94454.94;;;17.55
31528;BMP280;10206;48.012;10.030;2023-05-10T08:14:37;94455.38;;;17.65
31528;BMP280;10206;48.012;10.030;2023-05-10T08:17:04;94454.13;;;17.84
31528;BMP280;10206;48.012;10.030;2023-05-10T08:19:30;94462.59;;;18.21
31528;BMP280;10206;48.012;10.030;2023-05-10T08:21:56;94459.13;;;18.54
31528;BMP280;10206;48.012;10.030;2023-05-10T08:24:23;94465.69;;;18.29
31528;BMP280;10206;48.012;10.030;2023-05-10T08:26:49;94462.38;;;17.84
31528;BMP280;10206;48.012;10.030;2023-05-10T08:29:15;94465.34;;;18.54
31528;BMP280;10206;48.012;10.030;2023-05-10T08:31:41;94468.81;;;18.55
31528;BMP280;10206;48.012;10.030;2023-05-10T08:34:07;94456.41;;;18.56
31528;BMP280;10206;48.012;10.030;2023-05-10T08:36:33;94462.88;;;18.45
31528;BMP280;10206;48.012;10.030;2023-05-10T08:38:59;94458.88;;;18.83
31528;BMP280;10206;48.012;10.030;2023-05-10T08:41:26;94475.38;;;19.16
31528;BMP280;10206;48.012;10.030;2023-05-10T08:43:53;94461.78;;;19.04
31528;BMP280;10206;48.012;10.030;2023-05-10T08:46:21;94466.84;;;18.92
31528;BMP280;10206;48.012;10.030;2023-05-10T08:48:50;94466.63;;;18.69
31528;BMP280;10206;48.012;10.030;2023-05-10T08:51:23;94472.06;;;18.67
31528;BMP280;10206;48.012;10.030;2023-05-10T08:53:52;94467.88;;;19.01
31528;BMP280;10206;48.012;10.030;2023-05-10T08:56:18;94477.53;;;18.82
31528;BMP280;10206;48.012;10.030;2023-05-10T08:58:46;94473.81;;;19.11
31528;BMP280;10206;48.012;10.030;2023-05-10T09:01:14;94470.34;;;18.75
31528;BMP280;10206;48.012;10.030;2023-05-10T09:03:41;94474.34;;;19.25
31528;BMP280;10206;48.012;10.030;2023-05-10T09:06:07;94469.78;;;19.14
31528;BMP280;10206;48.012;10.030;2023-05-10T09:08:34;94470.09;;;18.87
31528;BMP280;10206;48.012;10.030;2023-05-10T09:11:00;94470.00;;;18.50
31528;BMP280;10206;48.012;10.030;2023-05-10T09:13:27;94473.88;;;18.78
31528;BMP280;10206;48.012;10.030;2023-05-10T09:15:54;94480.34;;;18.67
31528;BMP280;10206;48.012;10.030;2023-05-10T09:18:20;94481.69;;;19.18
31528;BMP280;10206;48.012;10.030;2023-05-10T09:20:46;94476.72;;;18.80
31528;BMP280;10206;48.012;10.030;2023-05-10T09:23:12;94480.41;;;19.39
31528;BMP280;10206;48.012;10.030;2023-05-10T09:25:39;94476.09;;;19.73
31528;BMP280;10206;48.012;10.030;2023-05-10T09:28:09;94470.44;;;19.32
31528;BMP280;10206;48.012;10.030;2023-05-10T09:30:36;94477.06;;;18.88
31528;BMP280;10206;48.012;10.030;2023-05-10T09:33:02;94477.59;;;19.19
31528;BMP280;10206;48.012;10.030;2023-05-10T09:35:30;94484.94;;;19.13
31528;BMP280;10206;48.012;10.030;2023-05-10T09:38:02;94480.50;;;18.71
31528;BMP280;10206;48.012;10.030;2023-05-10T09:40:29;94482.25;;;18.80
31528;BMP280;10206;48.012;10.030;2023-05-10T09:43:04;94481.94;;;18.89
31528;BMP280;10206;48.012;10.030;2023-05-10T09:45:33;94478.63;;;19.10
31528;BMP280;10206;48.012;10.030;2023-05-10T09:48:01;94483.03;;;19.35
31528;BMP280;10206;48.012;10.030;2023-05-10T09:50:28;94469.97;;;19.37
31528;BMP280;10206;48.012;10.030;2023-05-10T09:52:57;94472.88;;;19.42
31528;BMP280;10206;48.012;10.030;2023-05-10T09:55:26;94481.22;;;19.24
31528;BMP280;10206;48.012;10.030;2023-05-10T09:58:03;94479.72;;;19.21
31528;BMP280;10206;48.012;10.030;2023-05-10T10:00:41;94473.81;;;19.48
31528;BMP280;10206;48.012;10.030;2023-05-10T10:03:14;94469.53;;;19.45
31528;BMP280;10206;48.012;10.030;2023-05-10T10:05:42;94481.84;;;19.22
31528;BMP280;10206;48.012;10.030;2023-05-10T10:08:09;94480.34;;;19.37
31528;BMP280;10206;48.012;10.030;2023-05-10T10:10:36;94474.69;;;19.72
31528;BMP280;10206;48.012;10.030;2023-05-10T10:13:02;94482.47;;;19.58
31528;BMP280;10206;48.012;10.030;2023-05-10T10:15:29;94480.22;;;19.53
31528;BMP280;10206;48.012;10.030;2023-05-10T10:17:55;94478.06;;;19.51
31528;BMP280;10206;48.012;10.030;2023-05-10T10:20:22;94480.81;;;18.61
31528;BMP280;10206;48.012;10.030;2023-05-10T10:22:49;94476.09;;;18.64
31528;BMP280;10206;48.012;10.030;2023-05-10T10:25:16;94485.44;;;18.72
31528;BMP280;10206;48.012;10.030;2023-05-10T10:30:45;94478.88;;;18.81
31528;BMP280;10206;48.012;10.030;2023-05-10T10:36:16;94484.75;;;18.74
31528;BMP280;10206;48.012;10.030;2023-05-10T10:41:34;94485.97;;;18.02
31528;BMP280;10206;48.012;10.030;2023-05-10T10:49:49;94481.63;;;18.64
31528;BMP280;10206;48.012;10.030;2023-05-10T10:52:28;94483.38;;;17.91
31528;BMP280;10206;48.012;10.030;2023-05-10T10:55:13;94492.41;;;17.60
31528;BMP280;10206;48.012;10.030;2023-05-10T11:00:26;94506.50;;;17.21
31528;BMP280;10206;48.012;10.030;2023-05-10T11:03:04;94508.25;;;16.72
31528;BMP280;10206;48.012;10.030;2023-05-10T11:05:36;94506.03;;;16.98
31528;BMP280;10206;48.012;10.030;2023-05-10T11:08:27;94509.66;;;16.87
31528;BMP280;10206;48.012;10.030;2023-05-10T11:19:02;94522.28;;;16.08
31528;BMP280;10206;48.012;10.030;2023-05-10T11:21:32;94519.09;;;16.41
31528;BMP280;10206;48.012;10.030;2023-05-10T11:24:00;94518.81;;;16.35
31528;BMP280;10206;48.012;10.030;2023-05-10T11:26:31;94517.47;;;16.36
31528;BMP280;10206;48.012;10.030;2023-05-10T11:28:58;94520.44;;;16.13
31528;BMP280;10206;48.012;10.030;2023-05-10T11:31:26;94518.50;;;16.02
31528;BMP280;10206;48.012;10.030;2023-05-10T11:33:57;94531.03;;;16.45
31528;BMP280;10206;48.012;10.030;2023-05-10T11:36:53;94526.66;;;16.54
31528;BMP280;10206;48.012;10.030;2023-05-10T11:39:20;94527.16;;;16.23
31528;BMP280;10206;48.012;10.030;2023-05-10T11:41:48;94527.38;;;16.41
31528;BMP280;10206;48.012;10.030;2023-05-10T11:44:15;94526.59;;;16.68
31528;BMP280;10206;48.012;10.030;2023-05-10T11:46:41;94533.78;;;16.59
31528;BMP280;10206;48.012;10.030;2023-05-10T11:49:07;94536.84;;;16.65
31528;BMP280;10206;48.012;10.030;2023-05-10T11:51:34;94546.81;;;16.72
31528;BMP280;10206;48.012;10.030;2023-05-10T11:54:10;94538.13;;;16.78
31528;BMP280;10206;48.012;10.030;2023-05-10T11:56:40;94542.47;;;16.53
31528;BMP280;10206;48.012;10.030;2023-05-10T11:59:06;94540.25;;;16.93
31528;BMP280;10206;48.012;10.030;2023-05-10T12:01:34;94546.53;;;16.80
31528;BMP280;10206;48.012;10.030;2023-05-10T12:04:01;94541.19;;;16.84
31528;BMP280;10206;48.012;10.030;2023-05-10T12:06:32;94545.88;;;16.68
31528;BMP280;10206;48.012;10.030;2023-05-10T12:09:01;94543.06;;;16.66
31528;BMP280;10206;48.012;10.030;2023-05-10T12:11:31;94547.63;;;16.75
31528;BMP280;10206;48.012;10.030;2023-05-10T12:13:57;94543.34;;;16.58
31528;BMP280;10206;48.012;10.030;2023-05-10T12:16:25;94551.38;;;16.95
31528;BMP280;10206;48.012;10.030;2023-05-10T12:18:53;94551.88;;;17.34
31528;BMP280;10206;48.012;10.030;2023-05-10T12:21:20;94556.81;;;16.52
31528;BMP280;10206;48.012;10.030;2023-05-10T12:23:51;94559.16;;;16.85
31528;BMP280;10206;48.012;10.030;2023-05-10T12:26:18;94555.22;;;16.33
31528;BMP280;10206;48.012;10.030;2023-05-10T12:28:44;94566.81;;;16.86
31528;BMP280;10206;48.012;10.030;2023-05-10T12:31:10;94559.50;;;17.06
31528;BMP280;10206;48.012;10.030;2023-05-10T12:33:43;94562.84;;;17.18
31528;BMP280;10206;48.012;10.030;2023-05-10T12:36:11;94568.88;;;17.44
31528;BMP280;10206;48.012;10.030;2023-05-10T12:38:40;94560.69;;;17.17
31528;BMP280;10206;48.012;10.030;2023-05-10T12:41:13;94563.53;;;17.48
31528;BMP280;10206;48.012;10.030;2023-05-10T12:43:40;94564.41;;;17.37
31528;BMP280;10206;48.012;10.030;2023-05-10T12:46:11;94569.34;;;17.54
31528;BMP280;10206;48.012;10.030;2023-05-10T12:48:38;94572.59;;;17.95
31528;BMP280;10206;48.012;10.030;2023-05-10T12:51:05;94570.03;;;17.39
31528;BMP280;10206;48.012;10.030;2023-05-10T12:53:35;94565.78;;;17.67
31528;BMP280;10206;48.012;10.030;2023-05-10T12:56:01;94570.78;;;17.55
31528;BMP280;10206;48.012;10.030;2023-05-10T12:58:27;94557.91;;;17.30
31528;BMP280;10206;48.012;10.030;2023-05-10T13:00:54;94556.78;;;17.51
31528;BMP280;10206;48.012;10.030;2023-05-10T13:03:22;94562.03;;;17.45
31528;BMP280;10206;48.012;10.030;2023-05-10T13:05:48;94549.47;;;17.13
31528;BMP280;10206;48.012;10.030;2023-05-10T13:08:14;94559.75;;;17.55
31528;BMP280;10206;48.012;10.030;2023-05-10T13:10:41;94557.13;;;17.88
31528;BMP280;10206;48.012;10.030;2023-05-10T13:13:07;94557.00;;;17.86
31528;BMP280;10206;48.012;10.030;2023-05-10T13:15:34;94554.88;;;18.00
31528;BMP280;10206;48.012;10.030;2023-05-10T13:18:00;94553.03;;;17.44
31528;BMP280;10206;48.012;10.030;2023-05-10T13:20:26;94547.47;;;17.74
31528;BMP280;10206;48.012;10.030;2023-05-10T13:22:53;94554.06;;;17.67
31528;BMP280;10206;48.012;10.030;2023-05-10T13:25:19;94556.31;;;18.01
31528;BMP280;10206;48.012;10.030;2023-05-10T13:27:45;94549.09;;;17.63
31528;BMP280;10206;48.012;10.030;2023-05-10T13:30:12;94548.81;;;18.04
31528;BMP280;10206;48.012;10.030;2023-05-10T13:32:38;94548.81;;;18.19
31528;BMP280;10206;48.012;10.030;2023-05-10T13:35:05;94556.16;;;18.46
31528;BMP280;10206;48.012;10.030;2023-05-10T13:37:31;94546.78;;;18.04
31528;BMP280;10206;48.012;10.030;2023-05-10T13:39:58;94544.47;;;17.99
31528;BMP280;10206;48.012;10.030;2023-05-10T13:42:24;94553.69;;;18.36
31528;BMP280;10206;48.012;10.030;2023-05-10T13:44:50;94541.00;;;17.98
31528;BMP280;10206;48.012;10.030;2023-05-10T13:47:17;94540.31;;;18.47
31528;BMP280;10206;48.012;10.030;2023-05-10T13:49:43;94543.13;;;17.84
31528;BMP280;10206;48.012;10.030;2023-05-10T13:52:09;94536.88;;;18.30
31528;BMP280;10206;48.012;10.030;2023-05-10T13:54:38;94536.88;;;18.30
31528;BMP280;10206;48.012;10.030;2023-05-10T13:57:05;94532.47;;;17.92
31528;BMP280;10206;48.012;10.030;2023-05-10T13:59:32;94535.63;;;17.87
31528;BMP280;10206;48.012;10.030;2023-05-10T14:01:59;94533.41;;;17.68
31528;BMP280;10206;48.012;10.030;2023-05-10T14:04:25;94533.88;;;17.33
31528;BMP280;10206;48.012;10.030;2023-05-10T14:06:52;94542.13;;;17.62
31528;BMP280;10206;48.012;10.030;2023-05-10T14:09:18;94534.03;;;17.66
31528;BMP280;10206;48.012;10.030;2023-05-10T14:11:45;94537.13;;;17.43
31528;BMP280;10206;48.012;10.030;2023-05-10T14:14:12;94538.72;;;17.48
31528;BMP280;10206;48.012;10.030;2023-05-10T14:16:41;94549.03;;;17.47
31528;BMP280;10206;48.012;10.030;2023-05-10T14:19:07;94545.75;;;17.22
31528;BMP280;10206;48.012;10.030;2023-05-10T14:21:34;94538.38;;;16.54
31528;BMP280;10206;48.012;10.030;2023-05-10T14:24:00;94545.47;;;16.87
31528;BMP280;10206;48.012;10.030;2023-05-10T14:26:26;94553.94;;;16.77
31528;BMP280;10206;48.012;10.030;2023-05-10T14:28:53;94547.88;;;16.24
31528;BMP280;10206;48.012;10.030;2023-05-10T14:31:19;94548.41;;;15.82
31528;BMP280;10206;48.012;10.030;2023-05-10T14:33:46;94546.78;;;15.91
31528;BMP280;10206;48.012;10.030;2023-05-10T14:36:13;94552.72;;;15.35
31528;BMP280;10206;48.012;10.030;2023-05-10T14:38:40;94552.59;;;15.58
31528;BMP280;10206;48.012;10.030;2023-05-10T14:41:06;94552.56;;;15.69
31528;BMP280;10206;48.012;10.030;2023-05-10T14:43:32;94544.66;;;15.50
31528;BMP280;10206;48.012;10.030;2023-05-10T14:45:58;94549.13;;;15.44